sensor_id;sensor_type;location;lat;lon;timestamp;pressure;altitude;pressure_sealevel;temperature;humidity
9672;BME280;4874;43.568;27.824;2023-09-19T00:00:21;99400.88;;;15.41;100.00
9672;BME280;4874;43.568;27.824;2023-09-19T00:02:56;99398.41;;;15.80;100.00
9672;BME280;4874;43.568;27.824;2023-09-19T00:05:25;99400.59;;;15.76;100.00
9672;BME280;4874;43.568;27.824;2023-09-19T00:07:56;99381.88;;;15.68;100.00
9672;BME280;4874;43.568;27.824;2023-09-19T00:10:27;99403.09;;;15.78;100.00
9672;BME280;4874;43.568;27.824;2023-09-19T00:12:58;99402.25;;;15.69;100.00
9672;BME280;4874;43.568;27.824;2023-09-19T00:15:37;99401.03;;;15.40;100.00
9672;BME280;4874;43.568;27.824;2023-09-19T00:18:05;99396.41;;;15.08;100.00
9672;BME280;4874;43.568;27.824;2023-09-19T00:20:35;99390.75;;;15.11;100.00
9672;BME280;4874;43.568;27.824;2023-09-19T00:23:03;99390.16;;;14.91;100.00
9672;BME280;4874;43.568;27.824;2023-09-19T00:25:31;99383.50;;;15.03;100.00
9672;BME280;4874;43.568;27.824;2023-09-19T00:27:58;99383.19;;;15.56;100.00
9672;BME280;4874;43.568;27.824;2023-09-19T00:30:25;99389.53;;;15.47;100.00
9672;BME280;4874;43.568;27.824;2023-09-19T00:32:53;99392.28;;;15.21;100.00
9672;BME280;4874;43.568;27.824;2023-09-19T00:35:20;99387.44;;;15.33;100.00
9672;BME280;4874;43.568;27.824;2023-09-19T00:37:48;99377.97;;;15.47;100.00
9672;BME280;4874;43.568;27.824;2023-09-19T00:40:15;99384.44;;;15.36;100.00
9672;BME280;4874;43.568;27.824;2023-09-19T00:42:43;99390.63;;;15.28;100.00
9672;BME280;4874;43.568;27.824;2023-09-19T00:45:11;99385.13;;;15.38;100.00
9672;BME280;4874;43.568;27.824;2023-09-19T00:47:48;99374.66;;;15.61;100.00
9672;BME280;4874;43.568;27.824;2023-09-19T00:50:18;99382.00;;;15.43;100.00
9672;BME280;4874;43.568;27.824;2023-09-19T00:52:50;99379.50;;;14.99;100.00
9672;BME280;4874;43.568;27.824;2023-09-19T00:55:20;99370.44;;;15.42;100.00
9672;BME280;4874;43.568;27.824;2023-09-19T00:57:47;99371.31;;;15.51;100.00
9672;BME280;4874;43.568;27.824;2023-09-19T01:00:16;99379.50;;;16.05;100.00
9672;BME280;4874;43.568;27.824;2023-09-19T01:02:48;99370.78;;;15.87;100.00
9672;BME280;4874;43.568;27.824;2023-09-19T01:05:15;99376.31;;;16.10;100.00
9672;BME280;4874;43.568;27.824;2023-09-19T01:07:43;99371.91;;;15.28;100.00
9672;BME280;4874;43.568;27.824;2023-09-19T01:10:17;99349.25;;;15.07;100.00
9672;BME280;4874;43.568;27.824;2023-09-19T01:15:45;99371.44;;;15.41;100.00
9672;BME280;4874;43.568;27.824;2023-09-19T01:29:38;99387.84;;;15.70;100.00
9672;BME280;4874;43.568;27.824;2023-09-19T01:32:08;99373.56;;;15.21;100.00
9672;BME280;4874;43.568;27.824;2023-09-19T01:37:14;99372.97;;;15.02;100.00
9672;BME280;4874;43.568;27.824;2023-09-19T01:39:51;99330.56;;;14.57;100.00
9672;BME280;4874;43.568;27.824;2023-09-19T01:45:03;99370.13;;;14.87;100.00
9672;BME280;4874;43.568;27.824;2023-09-19T01:47:38;99345.53;;;14.50;100.00
9672;BME280;4874;43.568;27.824;2023-09-19T01:50:25;99372.28;;;14.84;100.00
9672;BME280;4874;43.568;27.824;2023-09-19T01:53:04;99372.81;;;15.03;100.00
9672;BME280;4874;43.568;27.824;2023-09-19T01:55:50;99380.47;;;14.90;100.00
9672;BME280;4874;43.568;27.824;2023-09-19T01:58:34;99382.19;;;14.66;100.00
9672;BME280;4874;43.568;27.824;2023-09-19T02:01:06;99365.00;;;14.60;100.00
9672;BME280;4874;43.568;27.824;2023-09-19T02:03:35;99366.16;;;14.66;100.00
9672;BME280;4874;43.568;27.824;2023-09-19T02:06:02;99377.00;;;15.80;100.00
9672;BME280;4874;43.568;27.824;2023-09-19T02:08:31;99389.53;;;15.63;100.00
9672;BME280;4874;43.568;27.824;2023-09-19T02:11:01;99370.72;;;15.31;100.00
9672;BME280;4874;43.568;27.824;2023-09-19T02:13:27;99376.31;;;14.96;100.00
9672;BME280;4874;43.568;27.824;2023-09-19T02:15:54;99375.78;;;14.51;100.00
9672;BME280;4874;43.568;27.824;2023-09-19T02:18:22;99372.41;;;14.49;100.00
9672;BME280;4874;43.568;27.824;2023-09-19T02:20:49;99371.31;;;14.59;100.00
9672;BME280;4874;43.568;27.824;2023-09-19T02:23:17;99376.31;;;14.54;100.00
9672;BME280;4874;43.568;27.824;2023-09-19T02:25:54;99372.63;;;14.55;100.00
9672;BME280;4874;43.568;27.824;2023-09-19T02:28:21;99370.44;;;14.51;100.00
9672;BME280;4874;43.568;27.824;2023-09-19T02:30:49;99368.03;;;14.65;100.00
9672;BME280;4874;43.568;27.824;2023-09-19T02:33:16;99367.66;;;14.60;100.00
9672;BME280;4874;43.568;27.824;2023-09-19T02:35:46;99363.31;;;14.59;100.00
9672;BME280;4874;43.568;27.824;2023-09-19T02:38:13;99315.00;;;14.94;100.00
9672;BME280;4874;43.568;27.824;2023-09-19T02:40:41;99356.72;;;16.01;100.00
9672;BME280;4874;43.568;27.824;2023-09-19T02:43:09;99359.91;;;16.21;100.00
9672;BME280;4874;43.568;27.824;2023-09-19T02:45:37;99359.09;;;14.98;100.00
9672;BME280;4874;43.568;27.824;2023-09-19T02:48:04;99364.69;;;15.13;100.00
9672;BME280;4874;43.568;27.824;2023-09-19T02:50:31;99350.16;;;15.31;100.00
9672;BME280;4874;43.568;27.824;2023-09-19T02:52:57;99354.50;;;14.67;100.00
9672;BME280;4874;43.568;27.824;2023-09-19T02:55:25;99335.59;;;15.26;100.00
9672;BME280;4874;43.568;27.824;2023-09-19T02:57:53;99309.03;;;15.32;100.00
9672;BME280;4874;43.568;27.824;2023-09-19T03:00:23;99358.44;;;15.78;100.00
9672;BME280;4874;43.568;27.824;2023-09-19T03:02:53;99353.72;;;14.82;100.00
9672;BME280;4874;43.568;27.824;2023-09-19T03:05:21;99322.06;;;14.28;100.00
9672;BME280;4874;43.568;27.824;2023-09-19T03:07:50;99347.16;;;14.69;100.00
9672;BME280;4874;43.568;27.824;2023-09-19T03:10:20;99323.91;;;14.69;100.00
9672;BME280;4874;43.568;27.824;2023-09-19T03:12:47;99350.75;;;14.52;100.00
9672;BME280;4874;43.568;27.824;2023-09-19T03:15:15;99351.66;;;15.26;100.00
9672;BME280;4874;43.568;27.824;2023-09-19T03:17:45;99348.53;;;15.47;100.00
9672;BME280;4874;43.568;27.824;2023-09-19T03:20:12;99351.00;;;16.20;100.00
9672;BME280;4874;43.568;27.824;2023-09-19T03:22:40;99351.59;;;15.02;100.00
9672;BME280;4874;43.568;27.824;2023-09-19T03:25:07;99306.69;;;14.64;100.00
9672;BME280;4874;43.568;27.824;2023-09-19T03:27:35;99349.13;;;15.16;100.00
9672;BME280;4874;43.568;27.824;2023-09-19T03:30:02;99338.50;;;14.41;100.00
9672;BME280;4874;43.568;27.824;2023-09-19T03:32:33;99343.44;;;14.62;100.00
9672;BME280;4874;43.568;27.824;2023-09-19T03:35:01;99343.41;;;14.95;100.00
9672;BME280;4874;43.568;27.824;2023-09-19T03:37:28;99344.13;;;15.21;100.00
9672;BME280;4874;43.568;27.824;2023-09-19T03:39:54;99347.34;;;14.42;100.00
9672;BME280;4874;43.568;27.824;2023-09-19T03:42:21;99342.44;;;14.63;100.00
9672;BME280;4874;43.568;27.824;2023-09-19T03:44:52;99339.22;;;14.93;100.00
9672;BME280;4874;43.568;27.824;2023-09-19T03:47:19;99343.03;;;14.90;100.00
9672;BME280;4874;43.568;27.824;2023-09-19T03:49:45;99343.69;;;15.50;100.00
9672;BME280;4874;43.568;27.824;2023-09-19T03:52:12;99339.03;;;14.45;100.00
9672;BME280;4874;43.568;27.824;2023-09-19T03:54:39;99332.00;;;13.92;100.00
9672;BME280;4874;43.568;27.824;2023-09-19T03:57:07;99328.63;;;14.16;100.00
9672;BME280;4874;43.568;27.824;2023-09-19T03:59:34;99329.09;;;14.63;100.00
9672;BME280;4874;43.568;27.824;2023-09-19T04:02:02;99338.75;;;14.04;100.00
9672;BME280;4874;43.568;27.824;2023-09-19T04:04:29;99344.22;;;14.46;100.00
9672;BME280;4874;43.568;27.824;2023-09-19T04:06:56;99343.47;;;15.19;100.00
9672;BME280;4874;43.568;27.824;2023-09-19T04:09:23;99342.88;;;14.92;100.00
9672;BME280;4874;43.568;27.824;2023-09-19T04:11:49;99323.88;;;15.03;100.00
9672;BME280;4874;43.568;27.824;2023-09-19T04:14:16;99337.34;;;14.44;100.00
9672;BME280;4874;43.568;27.824;2023-09-19T04:16:43;99348.13;;;14.68;100.00
9672;BME280;4874;43.568;27.824;2023-09-19T04:19:10;99340.47;;;14.73;100.00
9672;BME280;4874;43.568;27.824;2023-09-19T04:21:36;99343.69;;;14.43;100.00
9672;BME280;4874;43.568;27.824;2023-09-19T04:24:03;99344.44;;;14.27;100.00
9672;BME280;4874;43.568;27.824;2023-09-19T04:26:30;99348.94;;;14.27;100.00
9672;BME280;4874;43.568;27.824;2023-09-19T04:28:57;99347.69;;;14.21;100.00
9672;BME280;4874;43.568;27.824;2023-09-19T04:31:25;99338.50;;;14.41;100.00
9672;BME280;4874;43.568;27.824;2023-09-19T04:33:52;99333.28;;;14.65;100.00
9672;BME280;4874;43.568;27.824;2023-09-19T04:36:19;99341.13;;;14.67;100.00
9672;BME280;4874;43.568;27.824;2023-09-19T04:39:00;99297.47;;;15.16;100.00
9672;BME280;4874;43.568;27.824;2023-09-19T04:41:31;99319.38;;;15.11;100.00
9672;BME280;4874;43.568;27.824;2023-09-19T04:43:58;99323.84;;;14.95;100.00
9672;BME280;4874;43.568;27.824;2023-09-19T04:46:25;99315.19;;;15.09;100.00
9672;BME280;4874;43.568;27.824;2023-09-19T04:48:51;99320.88;;;14.56;100.00
9672;BME280;4874;43.568;27.824;2023-09-19T04:51:18;99318.53;;;14.53;100.00
9672;BME280;4874;43.568;27.824;2023-09-19T04:53:47;99323.66;;;14.47;100.00
9672;BME280;4874;43.568;27.824;2023-09-19T04:56:14;99319.25;;;14.63;100.00
9672;BME280;4874;43.568;27.824;2023-09-19T04:58:41;99324.91;;;15.34;100.00
9672;BME280;4874;43.568;27.824;2023-09-19T05:01:08;99317.34;;;15.05;100.00
9672;BME280;4874;43.568;27.824;2023-09-19T05:03:38;99322.69;;;15.05;100.00
9672;BME280;4874;43.568;27.824;2023-09-19T05:06:05;99324.41;;;15.22;100.00
9672;BME280;4874;43.568;27.824;2023-09-19T05:08:31;99324.13;;;15.66;100.00
9672;BME280;4874;43.568;27.824;2023-09-19T05:11:01;99328.66;;;15.57;100.00
9672;BME280;4874;43.568;27.824;2023-09-19T05:13:28;99324.78;;;15.36;100.00
9672;BME280;4874;43.568;27.824;2023-09-19T05:15:55;99327.59;;;15.34;100.00
9672;BME280;4874;43.568;27.824;2023-09-19T05:18:21;99323.63;;;15.54;100.00
9672;BME280;4874;43.568;27.824;2023-09-19T05:20:48;99327.81;;;15.65;100.00
9672;BME280;4874;43.568;27.824;2023-09-19T05:23:16;99335.63;;;16.14;100.00
9672;BME280;4874;43.568;27.824;2023-09-19T05:25:43;99331.28;;;16.13;100.00
9672;BME280;4874;43.568;27.824;2023-09-19T05:28:10;99331.47;;;15.96;100.00
9672;BME280;4874;43.568;27.824;2023-09-19T05:30:38;99328.59;;;16.13;100.00
9672;BME280;4874;43.568;27.824;2023-09-19T05:33:06;99320.56;;;16.21;100.00
9672;BME280;4874;43.568;27.824;2023-09-19T05:35:34;99332.66;;;16.64;100.00
9672;BME280;4874;43.568;27.824;2023-09-19T05:38:03;99329.13;;;17.02;100.00
9672;BME280;4874;43.568;27.824;2023-09-19T05:40:32;99332.97;;;16.69;100.00
9672;BME280;4874;43.568;27.824;2023-09-19T05:42:58;99325.03;;;16.84;100.00
9672;BME280;4874;43.568;27.824;2023-09-19T05:45:25;99331.75;;;16.33;100.00
9672;BME280;4874;43.568;27.824;2023-09-19T05:47:53;99338.56;;;16.43;100.00
9672;BME280;4874;43.568;27.824;2023-09-19T05:50:30;99345.94;;;16.33;100.00
9672;BME280;4874;43.568;27.824;2023-09-19T05:52:59;99331.88;;;17.17;100.00
9672;BME280;4874;43.568;27.824;2023-09-19T05:55:25;99292.38;;;16.80;100.00
9672;BME280;4874;43.568;27.824;2023-09-19T05:57:52;99348.84;;;17.09;100.00
9672;BME280;4874;43.568;27.824;2023-09-19T06:00:21;99341.81;;;17.84;100.00
9672;BME280;4874;43.568;27.824;2023-09-19T06:02:55;99341.78;;;18.36;100.00
9672;BME280;4874;43.568;27.824;2023-09-19T06:05:27;99343.69;;;18.94;100.00
9672;BME280;4874;43.568;27.824;2023-09-19T06:07:54;99344.22;;;19.04;100.00
9672;BME280;4874;43.568;27.824;2023-09-19T06:10:21;99330.69;;;19.33;100.00
9672;BME280;4874;43.568;27.824;2023-09-19T06:12:49;99325.19;;;19.41;100.00
9672;BME280;4874;43.568;27.824;2023-09-19T06:15:17;99352.19;;;19.68;100.00
9672;BME280;4874;43.568;27.824;2023-09-19T06:17:54;99352.69;;;20.00;100.00
9672;BME280;4874;43.568;27.824;2023-09-19T06:20:26;99347.53;;;20.05;100.00
9672;BME280;4874;43.568;27.824;2023-09-19T06:22:53;99355.25;;;20.35;100.00
9672;BME280;4874;43.568;27.824;2023-09-19T06:25:20;99338.09;;;20.15;100.00
9672;BME280;4874;43.568;27.824;2023-09-19T06:27:49;99349.09;;;20.75;100.00
9672;BME280;4874;43.568;27.824;2023-09-19T06:30:19;99346.16;;;21.11;100.00
9672;BME280;4874;43.568;27.824;2023-09-19T06:32:46;99341.63;;;21.18;100.00
9672;BME280;4874;43.568;27.824;2023-09-19T06:35:15;99339.16;;;21.30;100.00
9672;BME280;4874;43.568;27.824;2023-09-19T06:37:42;99343.34;;;21.32;100.00
9672;BME280;4874;43.568;27.824;2023-09-19T06:40:11;99340.06;;;21.63;100.00
9672;BME280;4874;43.568;27.824;2023-09-19T06:42:46;99341.94;;;21.56;100.00
9672;BME280;4874;43.568;27.824;2023-09-19T06:45:14;99345.66;;;21.55;100.00
9672;BME280;4874;43.568;27.824;2023-09-19T06:47:46;99339.66;;;21.72;100.00
9672;BME280;4874;43.568;27.824;2023-09-19T06:50:17;99344.63;;;21.75;100.00
9672;BME280;4874;43.568;27.824;2023-09-19T06:52:46;99281.03;;;21.73;100.00
9672;BME280;4874;43.568;27.824;2023-09-19T06:55:14;99320.16;;;22.03;100.00
9672;BME280;4874;43.568;27.824;2023-09-19T06:57:43;99305.38;;;22.05;100.00
9672;BME280;4874;43.568;27.824;2023-09-19T07:00:11;99308.84;;;22.39;100.00
9672;BME280;4874;43.568;27.824;2023-09-19T07:05:22;99342.72;;;22.80;100.00
9672;BME280;4874;43.568;27.824;2023-09-19T07:07:48;99339.25;;;22.60;100.00
9672;BME280;4874;43.568;27.824;2023-09-19T07:10:16;99343.94;;;22.91;100.00
9672;BME280;4874;43.568;27.824;2023-09-19T07:12:43;99311.06;;;22.81;100.00
9672;BME280;4874;43.568;27.824;2023-09-19T07:15:10;99331.34;;;23.09;100.00
9672;BME280;4874;43.568;27.824;2023-09-19T07:17:37;99338.06;;;23.00;100.00
9672;BME280;4874;43.568;27.824;2023-09-19T07:20:04;99334.69;;;22.15;100.00
9672;BME280;4874;43.568;27.824;2023-09-19T07:22:36;99331.94;;;22.67;100.00
9672;BME280;4874;43.568;27.824;2023-09-19T07:25:06;99324.59;;;22.87;100.00
9672;BME280;4874;43.568;27.824;2023-09-19T07:27:33;99327.25;;;23.45;100.00
9672;BME280;4874;43.568;27.824;2023-09-19T07:30:00;99333.31;;;23.40;100.00
9672;BME280;4874;43.568;27.824;2023-09-19T07:32:27;99327.56;;;23.61;100.00
9672;BME280;4874;43.568;27.824;2023-09-19T07:34:53;99326.59;;;23.05;100.00
9672;BME280;4874;43.568;27.824;2023-09-19T07:37:21;99322.69;;;22.94;100.00
9672;BME280;4874;43.568;27.824;2023-09-19T07:39:48;99327.13;;;22.76;100.00
9672;BME280;4874;43.568;27.824;2023-09-19T07:42:15;99325.09;;;22.45;100.00
9672;BME280;4874;43.568;27.824;2023-09-19T07:44:44;99323.34;;;22.83;100.00
9672;BME280;4874;43.568;27.824;2023-09-19T07:47:17;99319.38;;;22.86;100.00
9672;BME280;4874;43.568;27.824;2023-09-19T07:49:46;99277.81;;;22.48;100.00
9672;BME280;4874;43.568;27.824;2023-09-19T07:52:14;99301.34;;;22.67;100.00
9672;BME280;4874;43.568;27.824;2023-09-19T07:54:42;99315.75;;;22.15;100.00
9672;BME280;4874;43.568;27.824;2023-09-19T07:57:11;99291.88;;;21.99;100.00
9672;BME280;4874;43.568;27.824;2023-09-19T07:59:38;99307.34;;;22.75;100.00
9672;BME280;4874;43.568;27.824;2023-09-19T08:02:05;99298.47;;;22.36;100.00
9672;BME280;4874;43.568;27.824;2023-09-19T08:04:35;99305.19;;;23.41;100.00
9672;BME280;4874;43.568;27.824;2023-09-19T08:07:02;99304.00;;;23.31;100.00
9672;BME280;4874;43.568;27.824;2023-09-19T08:09:31;99298.63;;;23.80;100.00
9672;BME280;4874;43.568;27.824;2023-09-19T08:12:00;99288.50;;;23.93;100.00
9672;BME280;4874;43.568;27.824;2023-09-19T08:14:32;99298.13;;;23.65;100.00
9672;BME280;4874;43.568;27.824;2023-09-19T08:16:58;99292.91;;;23.88;100.00
9672;BME280;4874;43.568;27.824;2023-09-19T08:19:26;99297.66;;;24.41;100.00
9672;BME280;4874;43.568;27.824;2023-09-19T08:21:59;99294.59;;;24.13;100.00
9672;BME280;4874;43.568;27.824;2023-09-19T08:24:29;99277.06;;;24.16;100.00
9672;BME280;4874;43.568;27.824;2023-09-19T08:26:56;99284.38;;;24.76;100.00
9672;BME280;4874;43.568;27.824;2023-09-19T08:29:24;99285.25;;;24.70;100.00
9672;BME280;4874;43.568;27.824;2023-09-19T08:31:55;99251.88;;;24.99;100.00
9672;BME280;4874;43.568;27.824;2023-09-19T08:34:23;99275.75;;;24.79;100.00
9672;BME280;4874;43.568;27.824;2023-09-19T08:36:51;99274.06;;;24.96;100.00
9672;BME280;4874;43.568;27.824;2023-09-19T08:39:27;99239.47;;;24.56;100.00
9672;BME280;4874;43.568;27.824;2023-09-19T08:41:59;99261.44;;;24.72;100.00
9672;BME280;4874;43.568;27.824;2023-09-19T08:44:27;99258.72;;;24.90;100.00
9672;BME280;4874;43.568;27.824;2023-09-19T08:47:11;99256.47;;;25.46;100.00
9672;BME280;4874;43.568;27.824;2023-09-19T08:52:25;99223.56;;;23.98;100.00
9672;BME280;4874;43.568;27.824;2023-09-19T08:54:59;99200.03;;;24.35;100.00
9672;BME280;4874;43.568;27.824;2023-09-19T08:57:33;99208.34;;;24.22;100.00
9672;BME280;4874;43.568;27.824;2023-09-19T09:00:04;99230.88;;;24.40;100.00
9672;BME280;4874;43.568;27.824;2023-09-19T09:02:40;99226.66;;;24.26;100.00
9672;BME280;4874;43.568;27.824;2023-09-19T09:05:09;99221.75;;;24.71;100.00
9672;BME280;4874;43.568;27.824;2023-09-19T09:07:40;99210.34;;;24.63;100.00
9672;BME280;4874;43.568;27.824;2023-09-19T09:10:07;99221.28;;;24.38;100.00
9672;BME280;4874;43.568;27.824;2023-09-19T09:12:35;99176.16;;;24.91;100.00
9672;BME280;4874;43.568;27.824;2023-09-19T09:15:07;99202.78;;;25.01;100.00
9672;BME280;4874;43.568;27.824;2023-09-19T09:17:38;99200.34;;;24.93;100.00
9672;BME280;4874;43.568;27.824;2023-09-19T09:20:05;99207.91;;;25.20;100.00
9672;BME280;4874;43.568;27.824;2023-09-19T09:22:34;99208.97;;;24.90;100.00
9672;BME280;4874;43.568;27.824;2023-09-19T09:25:03;99211.13;;;24.99;100.00
9672;BME280;4874;43.568;27.824;2023-09-19T09:27:30;99212.84;;;25.12;100.00
9672;BME280;4874;43.568;27.824;2023-09-19T09:29:59;99180.06;;;24.95;100.00
9672;BME280;4874;43.568;27.824;2023-09-19T09:32:28;99215.25;;;24.36;100.00
9672;BME280;4874;43.568;27.824;2023-09-19T09:35:07;99211.63;;;25.37;100.00
9672;BME280;4874;43.568;27.824;2023-09-19T09:37:37;99209.84;;;25.31;100.00
9672;BME280;4874;43.568;27.824;2023-09-19T09:40:05;99176.81;;;25.16;100.00
9672;BME280;4874;43.568;27.824;2023-09-19T09:42:58;99206.63;;;25.23;100.00
9672;BME280;4874;43.568;27.824;2023-09-19T09:45:26;99202.22;;;25.51;100.00
9672;BME280;4874;43.568;27.824;2023-09-19T09:48:00;99203.09;;;25.04;99.98
9672;BME280;4874;43.568;27.824;2023-09-19T09:50:35;99197.47;;;25.47;99.59
9672;BME280;4874;43.568;27.824;2023-09-19T09:53:24;99201.91;;;25.30;99.64
9672;BME280;4874;43.568;27.824;2023-09-19T09:56:05;99192.72;;;25.42;100.00
9672;BME280;4874;43.568;27.824;2023-09-19T09:58:34;99203.84;;;25.41;99.79
9672;BME280;4874;43.568;27.824;2023-09-19T10:01:03;99196.50;;;25.00;99.88
9672;BME280;4874;43.568;27.824;2023-09-19T10:03:39;99193.25;;;24.44;100.00
9672;BME280;4874;43.568;27.824;2023-09-19T10:06:11;99187.00;;;25.21;100.00
9672;BME280;4874;43.568;27.824;2023-09-19T10:09:09;99161.66;;;25.38;100.00
9672;BME280;4874;43.568;27.824;2023-09-19T10:12:03;99183.56;;;26.13;98.47
9672;BME280;4874;43.568;27.824;2023-09-19T10:14:30;99184.72;;;25.82;98.23
9672;BME280;4874;43.568;27.824;2023-09-19T10:17:05;99150.78;;;25.96;94.49
9672;BME280;4874;43.568;27.824;2023-09-19T10:22:19;99173.81;;;26.28;94.80
9672;BME280;4874;43.568;27.824;2023-09-19T10:24:49;99179.63;;;25.51;92.43
9672;BME280;4874;43.568;27.824;2023-09-19T10:27:29;99175.25;;;25.50;93.65
9672;BME280;4874;43.568;27.824;2023-09-19T10:29:56;99175.72;;;25.82;94.98
9672;BME280;4874;43.568;27.824;2023-09-19T10:32:28;99167.22;;;26.13;93.13
9672;BME280;4874;43.568;27.824;2023-09-19T10:35:01;99172.00;;;26.45;93.04
9672;BME280;4874;43.568;27.824;2023-09-19T10:37:29;99172.19;;;25.70;92.92
9672;BME280;4874;43.568;27.824;2023-09-19T10:39:59;99134.50;;;25.09;94.62
9672;BME280;4874;43.568;27.824;2023-09-19T10:42:26;99140.00;;;26.01;92.93
9672;BME280;4874;43.568;27.824;2023-09-19T10:44:57;99136.72;;;25.65;91.47
9672;BME280;4874;43.568;27.824;2023-09-19T10:47:26;99155.13;;;25.97;91.28
9672;BME280;4874;43.568;27.824;2023-09-19T10:49:53;99151.09;;;26.23;89.39
9672;BME280;4874;43.568;27.824;2023-09-19T10:52:24;99135.28;;;25.97;91.38
9672;BME280;4874;43.568;27.824;2023-09-19T10:54:53;99144.38;;;25.91;91.51
9672;BME280;4874;43.568;27.824;2023-09-19T10:57:24;99156.56;;;26.00;90.65
9672;BME280;4874;43.568;27.824;2023-09-19T11:02:31;99137.88;;;26.15;88.80
9672;BME280;4874;43.568;27.824;2023-09-19T11:05:11;99128.88;;;26.26;87.19
9672;BME280;4874;43.568;27.824;2023-09-19T11:07:58;99128.16;;;26.19;89.12
9672;BME280;4874;43.568;27.824;2023-09-19T11:13:29;99125.63;;;26.97;83.63
9672;BME280;4874;43.568;27.824;2023-09-19T11:16:04;99114.44;;;26.82;84.99
9672;BME280;4874;43.568;27.824;2023-09-19T11:26:41;99098.50;;;26.74;86.48
9672;BME280;4874;43.568;27.824;2023-09-19T11:29:40;99107.13;;;27.15;84.90
9672;BME280;4874;43.568;27.824;2023-09-19T11:32:07;99095.72;;;26.29;83.26
9672;BME280;4874;43.568;27.824;2023-09-19T11:40:08;99097.72;;;27.39;82.89
9672;BME280;4874;43.568;27.824;2023-09-19T11:42:46;99099.03;;;27.20;83.81
9672;BME280;4874;43.568;27.824;2023-09-19T11:46:20;99089.38;;;27.13;86.01
9672;BME280;4874;43.568;27.824;2023-09-19T11:48:24;99095.06;;;26.95;86.79
9672;BME280;4874;43.568;27.824;2023-09-19T11:50:54;99080.97;;;26.41;89.05
9672;BME280;4874;43.568;27.824;2023-09-19T11:53:22;99079.19;;;26.92;90.95
9672;BME280;4874;43.568;27.824;2023-09-19T11:55:49;99080.13;;;26.97;88.82
9672;BME280;4874;43.568;27.824;2023-09-19T11:58:17;99085.66;;;26.29;89.52
9672;BME280;4874;43.568;27.824;2023-09-19T12:00:54;99080.69;;;26.54;96.07
9672;BME280;4874;43.568;27.824;2023-09-19T12:03:29;99066.00;;;26.84;97.78
9672;BME280;4874;43.568;27.824;2023-09-19T12:05:58;99057.94;;;26.32;98.37
9672;BME280;4874;43.568;27.824;2023-09-19T12:08:25;99073.91;;;26.69;100.00
9672;BME280;4874;43.568;27.824;2023-09-19T12:10:53;99070.81;;;26.09;100.00
9672;BME280;4874;43.568;27.824;2023-09-19T12:13:22;99040.97;;;25.51;100.00
9672;BME280;4874;43.568;27.824;2023-09-19T12:15:49;99069.41;;;25.25;100.00
9672;BME280;4874;43.568;27.824;2023-09-19T12:18:31;99060.91;;;25.68;100.00
9672;BME280;4874;43.568;27.824;2023-09-19T12:20:58;99067.47;;;25.95;100.00
9672;BME280;4874;43.568;27.824;2023-09-19T12:23:25;99077.22;;;25.68;100.00
9672;BME280;4874;43.568;27.824;2023-09-19T12:25:52;99072.66;;;25.57;100.00
9672;BME280;4874;43.568;27.824;2023-09-19T12:28:26;99059.59;;;25.82;100.00
9672;BME280;4874;43.568;27.824;2023-09-19T12:30:53;99069.31;;;25.20;100.00
9672;BME280;4874;43.568;27.824;2023-09-19T12:33:24;99070.69;;;25.00;100.00
9672;BME280;4874;43.568;27.824;2023-09-19T12:35:54;99068.38;;;25.49;100.00
9672;BME280;4874;43.568;27.824;2023-09-19T12:38:25;99062.69;;;25.63;100.00
9672;BME280;4874;43.568;27.824;2023-09-19T12:40:56;99063.63;;;25.22;100.00
9672;BME280;4874;43.568;27.824;2023-09-19T12:43:26;99061.63;;;25.64;100.00
9672;BME280;4874;43.568;27.824;2023-09-19T12:45:53;99059.19;;;26.13;100.00
9672;BME280;4874;43.568;27.824;2023-09-19T12:48:21;99062.16;;;26.12;100.00
9672;BME280;4874;43.568;27.824;2023-09-19T12:51:08;99055.44;;;25.91;100.00
9672;BME280;4874;43.568;27.824;2023-09-19T12:53:40;99059.00;;;25.80;100.00
9672;BME280;4874;43.568;27.824;2023-09-19T12:56:14;99051.72;;;25.69;100.00
9672;BME280;4874;43.568;27.824;2023-09-19T12:58:58;99050.28;;;25.32;100.00
9672;BME280;4874;43.568;27.824;2023-09-19T13:01:27;99052.75;;;25.68;100.00
9672;BME280;4874;43.568;27.824;2023-09-19T13:04:20;99047.44;;;25.27;100.00
9672;BME280;4874;43.568;27.824;2023-09-19T13:06:55;99052.19;;;25.31;100.00
9672;BME280;4874;43.568;27.824;2023-09-19T13:09:27;99056.13;;;25.87;100.00
9672;BME280;4874;43.568;27.824;2023-09-19T13:12:01;99039.78;;;25.12;100.00
9672;BME280;4874;43.568;27.824;2023-09-19T13:14:29;99058.53;;;25.14;100.00
9672;BME280;4874;43.568;27.824;2023-09-19T13:17:07;99049.44;;;24.97;100.00
9672;BME280;4874;43.568;27.824;2023-09-19T13:19:47;99041.78;;;24.64;100.00
9672;BME280;4874;43.568;27.824;2023-09-19T13:22:41;99058.44;;;24.68;100.00
9672;BME280;4874;43.568;27.824;2023-09-19T13:25:17;99051.56;;;24.95;100.00
9672;BME280;4874;43.568;27.824;2023-09-19T13:27:51;99038.56;;;25.20;100.00
9672;BME280;4874;43.568;27.824;2023-09-19T13:30:19;99054.31;;;25.18;100.00
9672;BME280;4874;43.568;27.824;2023-09-19T13:32:47;99039.00;;;24.82;100.00
9672;BME280;4874;43.568;27.824;2023-09-19T13:35:15;99059.47;;;24.96;100.00
9672;BME280;4874;43.568;27.824;2023-09-19T13:37:42;99059.09;;;24.93;100.00
9672;BME280;4874;43.568;27.824;2023-09-19T13:40:14;99043.31;;;24.60;100.00
9672;BME280;4874;43.568;27.824;2023-09-19T13:42:42;99047.75;;;24.73;100.00
9672;BME280;4874;43.568;27.824;2023-09-19T13:45:09;99048.47;;;25.03;100.00
9672;BME280;4874;43.568;27.824;2023-09-19T13:47:40;99028.66;;;25.02;100.00
9672;BME280;4874;43.568;27.824;2023-09-19T13:50:08;99048.53;;;25.49;100.00
9672;BME280;4874;43.568;27.824;2023-09-19T13:52:35;99050.94;;;24.81;100.00
9672;BME280;4874;43.568;27.824;2023-09-19T13:55:02;99044.13;;;25.02;100.00
9672;BME280;4874;43.568;27.824;2023-09-19T13:57:29;99040.56;;;24.90;100.00
9672;BME280;4874;43.568;27.824;2023-09-19T13:59:56;99007.47;;;24.70;100.00
9672;BME280;4874;43.568;27.824;2023-09-19T14:02:23;99036.69;;;24.97;100.00
9672;BME280;4874;43.568;27.824;2023-09-19T14:04:53;99034.91;;;24.91;100.00